Time;durP1;ratioP1;P1;durP2;ratioP2;P2;SDS_P1;SDS_P2;PMS_P1;PMS_P2;Temp;Humidity;BMP_temperature;BMP_pressure;BME280_temperature;BME280_humidity;BME280_pressure;Samples;Min_cycle;Max_cycle;Signal;HPM_P1;HPM_P2
2022/08/30 00:01:01;;;;;;;14.63;9.52;;;;;;;16.93;85.12;96515.13;4972452;28;20050;-78
2022/08/30 00:01:56;;;;;;;13.32;10.90;;;;;;;16.98;86.10;96522.31;4973262;28;20053;-79
2022/08/30 00:04:23;;;;;;;12.38;9.77;;;;;;;17.01;85.02;96520.78;4972542;28;20055;-78
2022/08/30 00:06:49;;;;;;;12.77;9.63;;;;;;;16.98;84.19;96521.53;4972705;28;20073;-78
2022/08/30 00:09:16;;;;;;;11.70;9.07;;;;;;;16.94;84.40;96519.47;4964314;28;20051;-78
2022/08/30 00:11:42;;;;;;;14.38;8.35;;;;;;;16.93;84.00;96517.88;4953562;28;20051;-78
2022/08/30 00:14:09;;;;;;;13.18;9.30;;;;;;;16.88;84.26;96522.84;4952891;28;20059;-79
2022/08/30 00:16:35;;;;;;;11.18;9.07;;;;;;;16.85;83.72;96518.84;4953351;28;20047;-78
2022/08/30 00:19:03;;;;;;;11.93;8.95;;;;;;;16.84;84.72;96525.50;4953222;28;20048;-76
2022/08/30 00:21:30;;;;;;;14.07;9.95;;;;;;;16.82;84.35;96524.28;4952842;28;20052;-80
2022/08/30 00:23:56;;;;;;;12.40;8.88;;;;;;;16.81;84.12;96526.22;4952490;28;20047;-78
2022/08/30 00:26:23;;;;;;;12.50;8.85;;;;;;;16.82;84.22;96522.31;4952128;28;20055;-81
2022/08/30 00:28:49;;;;;;;12.55;9.43;;;;;;;16.74;84.66;96523.28;4953572;28;20039;-77
2022/08/30 00:31:16;;;;;;;11.98;9.90;;;;;;;16.75;85.22;96526.81;4953002;28;20051;-78
2022/08/30 00:33:42;;;;;;;13.38;10.02;;;;;;;16.70;85.39;96519.59;4953139;28;20043;-78
2022/08/30 00:36:10;;;;;;;11.38;9.25;;;;;;;16.74;86.17;96523.28;4952514;28;20050;-78
2022/08/30 00:38:37;;;;;;;10.35;7.93;;;;;;;16.67;85.87;96517.56;4952984;28;20044;-78
2022/08/30 00:41:03;;;;;;;9.75;7.75;;;;;;;16.63;85.39;96517.47;4952506;28;20055;-79
2022/08/30 00:43:34;;;;;;;12.95;8.85;;;;;;;16.57;85.32;96509.84;4953200;28;20134;-79
2022/08/30 00:46:03;;;;;;;13.13;8.57;;;;;;;16.59;85.25;96513.81;4953007;28;20055;-78
2022/08/30 00:48:30;;;;;;;14.35;9.45;;;;;;;16.58;85.58;96503.19;4952392;28;20046;-78
2022/08/30 00:51:01;;;;;;;11.20;8.50;;;;;;;16.59;86.15;96505.56;4952814;28;20055;-78
2022/08/30 00:53:35;;;;;;;14.05;9.13;;;;;;;16.59;86.36;96504.78;4968470;28;20035;-78
2022/08/30 00:56:03;;;;;;;12.45;9.07;;;;;;;16.59;86.40;96505.56;4971711;28;20130;-75
2022/08/30 00:58:32;;;;;;;13.98;9.65;;;;;;;16.47;86.03;96502.91;4971888;28;20047;-78
2022/08/30 01:01:01;;;;;;;12.50;9.85;;;;;;;16.47;86.27;96500.16;4972162;28;20047;-78
2022/08/30 01:03:28;;;;;;;12.15;9.50;;;;;;;16.46;85.91;96495.81;4971761;28;20050;-78
2022/08/30 01:05:57;;;;;;;11.88;8.80;;;;;;;16.54;85.98;96494.03;4971777;28;20525;-78
2022/08/30 01:08:23;;;;;;;14.77;9.77;;;;;;;16.53;85.59;96487.75;4971339;28;20047;-78
2022/08/30 01:10:53;;;;;;;10.50;8.73;;;;;;;16.54;85.53;96496.78;4971598;28;20054;-78
2022/08/30 01:13:21;;;;;;;11.40;8.50;;;;;;;16.51;85.12;96503.00;4971324;28;20053;-78
2022/08/30 01:15:49;;;;;;;11.70;8.27;;;;;;;16.46;83.94;96503.28;4971545;28;20047;-79
2022/08/30 01:18:17;;;;;;;11.00;8.30;;;;;;;16.29;83.84;96510.69;4971418;28;20042;-78
2022/08/30 01:20:53;;;;;;;10.98;7.90;;;;;;;16.29;84.81;96505.19;4971816;28;20043;-78
2022/08/30 01:23:22;;;;;;;10.40;8.18;;;;;;;16.30;84.56;96504.03;4955995;28;20051;-78
2022/08/30 01:25:50;;;;;;;11.77;8.48;;;;;;;16.21;84.25;96506.13;4952327;28;20047;-78
2022/08/30 01:28:21;;;;;;;11.90;7.85;;;;;;;16.20;84.97;96509.25;4951993;28;20061;-78
2022/08/30 01:30:48;;;;;;;9.70;7.72;;;;;;;16.17;84.93;96513.47;4952378;28;20414;-79
2022/08/30 01:33:15;;;;;;;11.80;8.25;;;;;;;16.17;84.16;96500.53;4951672;28;20058;-78
2022/08/30 01:35:47;;;;;;;13.95;8.32;;;;;;;16.10;84.30;96508.59;4952207;28;20054;-78
2022/08/30 01:38:15;;;;;;;12.02;7.95;;;;;;;16.03;84.65;96507.59;4951889;28;20051;-78
2022/08/30 01:40:43;;;;;;;12.10;8.52;;;;;;;15.93;84.94;96505.34;4952523;28;20047;-78
2022/08/30 01:43:11;;;;;;;11.73;8.73;;;;;;;15.89;85.95;96506.03;4951591;28;20055;-78
2022/08/30 01:45:37;;;;;;;13.55;9.80;;;;;;;15.91;86.99;96514.72;4951892;28;20680;-79
2022/08/30 01:48:04;;;;;;;11.43;8.98;;;;;;;15.94;87.08;96512.44;4951647;28;20417;-78
2022/08/30 01:50:30;;;;;;;11.55;8.70;;;;;;;15.95;86.88;96509.31;4952293;28;20043;-79
2022/08/30 01:52:57;;;;;;;12.55;7.95;;;;;;;15.97;86.88;96511.72;4963998;28;20470;-79
2022/08/30 01:55:24;;;;;;;14.05;8.55;;;;;;;15.99;86.90;96503.94;4970856;28;20047;-80
2022/08/30 01:57:51;;;;;;;11.43;8.45;;;;;;;15.98;86.68;96508.63;4971160;28;20043;-78
2022/08/30 02:00:19;;;;;;;10.90;8.55;;;;;;;15.97;86.99;96511.72;4970785;28;20062;-79
2022/08/30 02:02:45;;;;;;;10.85;8.90;;;;;;;15.97;87.47;96519.97;4971469;28;20043;-79
2022/08/30 02:05:12;;;;;;;11.57;8.82;;;;;;;15.97;87.19;96517.22;4970781;28;20043;-78
2022/08/30 02:07:38;;;;;;;13.77;8.65;;;;;;;15.96;87.24;96515.63;4971546;28;20042;-78
2022/08/30 02:10:06;;;;;;;13.25;8.20;;;;;;;15.98;87.74;96507.84;4970697;28;20047;-79
2022/08/30 02:12:33;;;;;;;12.70;8.18;;;;;;;15.97;86.84;96508.97;4971277;28;20057;-79
2022/08/30 02:15:01;;;;;;;10.32;8.40;;;;;;;15.94;86.79;96513.22;4971281;28;20130;-79
2022/08/30 02:17:28;;;;;;;9.93;7.57;;;;;;;15.88;87.07;96512.69;4971056;28;20043;-79
2022/08/30 02:19:54;;;;;;;10.05;8.43;;;;;;;15.86;87.23;96506.72;4971406;28;20513;-78
2022/08/30 02:22:21;;;;;;;10.93;8.00;;;;;;;15.86;86.51;96508.66;4963721;28;20047;-79
2022/08/30 02:24:47;;;;;;;11.65;8.27;;;;;;;15.88;86.84;96514.63;4951707;28;20051;-78
2022/08/30 02:27:13;;;;;;;14.05;8.10;;;;;;;15.85;86.19;96505.13;4951662;28;20048;-78
2022/08/30 02:29:40;;;;;;;10.32;7.55;;;;;;;15.81;86.25;96506.16;4951969;28;20043;-79
2022/08/30 02:32:08;;;;;;;10.95;7.80;;;;;;;15.78;86.08;96507.66;4951641;28;20043;-78
2022/08/30 02:34:34;;;;;;;10.30;8.45;;;;;;;15.72;86.54;96506.31;4951989;28;20043;-79
2022/08/30 02:37:01;;;;;;;10.30;7.95;;;;;;;15.72;86.77;96495.34;4951778;28;20421;-79
2022/08/30 02:39:27;;;;;;;10.82;8.13;;;;;;;15.75;86.55;96493.84;4951204;28;20557;-79
2022/08/30 02:41:54;;;;;;;10.35;7.75;;;;;;;15.77;86.76;96497.84;4951778;28;20048;-78
2022/08/30 02:44:20;;;;;;;11.02;7.45;;;;;;;15.74;86.65;96497.72;4951278;28;20047;-79
2022/08/30 02:46:47;;;;;;;9.73;7.30;;;;;;;15.74;87.06;96515.00;4952365;28;20043;-79
2022/08/30 02:49:15;;;;;;;12.77;8.60;;;;;;;15.71;87.40;96510.19;4954431;28;20047;-79
2022/08/30 02:51:41;;;;;;;8.80;7.20;;;;;;;15.67;84.81;96514.78;4956955;28;20509;-78
2022/08/30 02:54:08;;;;;;;10.85;7.82;;;;;;;15.51;84.15;96511.16;4973750;28;20510;-79
2022/08/30 02:56:35;;;;;;;9.20;7.32;;;;;;;15.40;85.00;96522.59;4974281;28;20042;-78
2022/08/30 02:59:01;;;;;;;12.38;7.45;;;;;;;15.40;85.89;96519.84;4972756;28;20082;-79
2022/08/30 03:01:28;;;;;;;9.32;7.57;;;;;;;15.39;86.07;96509.19;4973327;28;20043;-78
2022/08/30 03:03:54;;;;;;;10.65;7.97;;;;;;;15.37;86.07;96523.28;4973980;28;20046;-79
2022/08/30 03:06:22;;;;;;;10.38;8.20;;;;;;;15.35;86.59;96524.78;4973704;28;20039;-78
2022/08/30 03:08:48;;;;;;;9.90;7.60;;;;;;;15.37;87.00;96525.22;4973866;28;20047;-79
2022/08/30 03:11:15;;;;;;;10.00;7.50;;;;;;;15.39;87.05;96526.44;4973748;28;20050;-79
2022/08/30 03:13:42;;;;;;;11.60;7.88;;;;;;;15.38;86.96;96519.38;4973879;28;20047;-78
2022/08/30 03:16:08;;;;;;;11.73;7.95;;;;;;;15.38;86.57;96519.38;4973692;28;20097;-79
2022/08/30 03:18:35;;;;;;;11.13;7.75;;;;;;;15.34;86.46;96529.44;4973724;28;20042;-80
2022/08/30 03:21:01;;;;;;;10.48;7.25;;;;;;;15.34;86.67;96523.94;4973766;28;20078;-78
2022/08/30 03:23:30;;;;;;;9.32;8.05;;;;;;;15.31;86.87;96523.84;4957994;28;20058;-78
2022/08/30 03:25:57;;;;;;;10.68;7.25;;;;;;;15.33;87.45;96522.34;4954598;28;20526;-79
2022/08/30 03:28:23;;;;;;;10.60;8.38;;;;;;;15.39;87.45;96531.94;4954341;28;20098;-79
2022/08/30 03:30:50;;;;;;;10.80;7.95;;;;;;;15.35;86.03;96531.06;4954604;28;20074;-79
2022/08/30 03:33:17;;;;;;;10.15;8.15;;;;;;;15.30;86.16;96527.75;4952900;28;20704;-79
2022/08/30 03:35:43;;;;;;;11.38;8.60;;;;;;;15.25;86.88;96523.28;4954464;28;20042;-79
2022/08/30 03:38:10;;;;;;;11.93;7.65;;;;;;;15.28;87.33;96528.06;4953620;28;20065;-79
2022/08/30 03:40:38;;;;;;;13.40;7.60;;;;;;;15.29;86.95;96534.34;4954243;28;20502;-79
2022/08/30 03:43:05;;;;;;;10.80;8.32;;;;;;;15.24;87.09;96529.09;4953951;28;20051;-79
2022/08/30 03:45:32;;;;;;;10.57;7.63;;;;;;;15.26;87.84;96533.13;4954517;28;20047;-80
2022/08/30 03:47:58;;;;;;;10.23;7.72;;;;;;;15.30;88.60;96525.81;4954025;28;20059;-78
2022/08/30 03:50:25;;;;;;;12.35;8.40;;;;;;;15.33;88.42;96533.31;4953482;28;20133;-79
2022/08/30 03:52:51;;;;;;;11.27;8.40;;;;;;;15.34;88.58;96525.88;4964062;28;20039;-78
2022/08/30 03:55:18;;;;;;;10.95;7.93;;;;;;;15.37;89.43;96523.28;4972864;28;20053;-78
2022/08/30 03:57:46;;;;;;;11.07;7.90;;;;;;;15.35;89.24;96525.56;4972810;28;20050;-78
2022/08/30 04:00:15;;;;;;;8.85;7.60;;;;;;;15.37;88.93;96523.28;4971797;28;20042;-78
2022/08/30 04:02:42;;;;;;;11.00;7.80;;;;;;;15.36;88.58;96516.19;4973007;28;20035;-77
2022/08/30 04:05:10;;;;;;;9.68;7.43;;;;;;;15.33;88.33;96522.34;4972231;28;20058;-78
2022/08/30 04:07:37;;;;;;;12.27;8.05;;;;;;;15.31;88.17;96519.16;4973057;28;20082;-78
2022/08/30 04:10:03;;;;;;;12.10;8.30;;;;;;;15.33;87.70;96521.56;4972389;28;20039;-78
2022/08/30 04:12:30;;;;;;;15.80;10.43;;;;;;;15.24;87.78;96524.41;4973000;28;20047;-78
2022/08/30 04:14:58;;;;;;;13.75;10.45;;;;;;;15.18;88.03;96525.78;4972879;28;20051;-78
2022/08/30 04:17:24;;;;;;;12.32;9.38;;;;;;;15.20;88.18;96529.00;4972572;28;20388;-78
2022/08/30 04:19:51;;;;;;;11.63;8.55;;;;;;;15.24;88.36;96532.63;4972487;28;20039;-78
2022/08/30 04:22:17;;;;;;;13.48;10.40;;;;;;;15.22;88.44;96526.72;4971450;28;20047;-78
2022/08/30 04:24:44;;;;;;;15.77;10.05;;;;;;;15.21;88.49;96529.81;4972450;28;20559;-78
2022/08/30 04:27:10;;;;;;;13.40;9.07;;;;;;;15.23;88.04;96538.47;4970670;28;20050;-78
2022/08/30 04:29:37;;;;;;;13.35;9.23;;;;;;;15.22;88.12;96543.16;4972865;28;20049;-78
2022/08/30 04:32:05;;;;;;;12.30;9.32;;;;;;;15.21;87.96;96547.06;4972195;28;20051;-79
2022/08/30 04:34:32;;;;;;;13.70;9.05;;;;;;;15.16;87.85;96552.78;4972483;28;20043;-78
2022/08/30 04:36:58;;;;;;;16.75;9.98;;;;;;;15.12;87.96;96549.09;4972610;28;20051;-79
2022/08/30 04:39:25;;;;;;;12.55;9.10;;;;;;;15.04;88.29;96548.09;4971767;28;20049;-78
2022/08/30 04:41:52;;;;;;;11.90;9.32;;;;;;;15.08;88.12;96548.19;4972328;28;20051;-78
2022/08/30 04:44:18;;;;;;;13.20;9.57;;;;;;;15.10;88.24;96551.41;4972046;28;20063;-79
2022/08/30 04:46:45;;;;;;;12.25;9.55;;;;;;;15.11;88.39;96553.00;4972429;28;20051;-79
2022/08/30 04:49:13;;;;;;;13.00;9.65;;;;;;;15.02;88.57;96552.28;4971715;28;20050;-79
2022/08/30 04:51:39;;;;;;;14.98;10.27;;;;;;;14.91;88.94;96556.63;4970864;28;20046;-80
2022/08/30 04:54:06;;;;;;;16.33;11.02;;;;;;;14.86;89.05;96566.69;4953049;28;20047;-79
2022/08/30 04:56:33;;;;;;;13.85;9.80;;;;;;;14.82;89.03;96563.00;4953329;28;20047;-79
2022/08/30 04:59:00;;;;;;;13.07;8.93;;;;;;;14.88;88.76;96567.16;4953409;28;20054;-79
2022/08/30 05:01:29;;;;;;;16.15;10.02;;;;;;;14.94;88.94;96564.19;4953128;28;20491;-80
2022/08/30 05:03:57;;;;;;;12.38;9.10;;;;;;;14.97;88.80;96577.19;4953602;28;20683;-79
2022/08/30 05:06:27;;;;;;;13.60;10.05;;;;;;;14.93;88.34;96573.53;4953449;28;20066;-78
2022/08/30 05:08:53;;;;;;;17.80;10.90;;;;;;;14.92;88.63;96580.97;4953566;28;20106;-77
2022/08/30 05:11:21;;;;;;;12.63;9.77;;;;;;;14.94;88.37;96575.97;4951629;28;20054;-79
2022/08/30 05:13:48;;;;;;;15.32;9.88;;;;;;;15.04;88.52;96569.22;4952445;28;20507;-80
2022/08/30 05:16:16;;;;;;;17.33;11.00;;;;;;;14.96;88.15;96584.63;4952165;28;20648;-79
2022/08/30 05:18:43;;;;;;;15.35;10.80;;;;;;;14.94;88.67;96583.38;4952259;28;20553;-78
2022/08/30 05:21:12;;;;;;;16.65;10.30;;;;;;;15.04;88.52;96580.19;4952057;28;20051;-79
2022/08/30 05:23:41;;;;;;;14.65;10.68;;;;;;;15.02;89.11;96576.97;4969851;28;20658;-75
2022/08/30 05:26:11;;;;;;;16.45;10.68;;;;;;;15.04;89.47;96574.72;4971502;28;20053;-76
2022/08/30 05:28:38;;;;;;;14.02;10.38;;;;;;;15.21;89.35;96574.50;4971726;28;20043;-76
2022/08/30 05:31:13;;;;;;;12.98;9.50;;;;;;;15.27;88.99;96583.28;4971077;28;20058;-75
2022/08/30 05:33:40;;;;;;;13.30;9.68;;;;;;;15.38;89.04;96587.97;4971539;28;20499;-74
2022/08/30 05:36:07;;;;;;;15.07;9.95;;;;;;;15.46;88.16;96585.47;4969551;28;20054;-76
2022/08/30 05:38:33;;;;;;;12.68;9.68;;;;;;;15.49;88.01;96584.78;4969949;28;20050;-77
2022/08/30 05:41:01;;;;;;;16.00;10.82;;;;;;;15.52;87.97;96589.59;4970023;28;20054;-77
2022/08/30 05:43:27;;;;;;;17.20;10.80;;;;;;;15.57;88.04;96587.41;4969789;28;20054;-79
2022/08/30 05:46:00;;;;;;;16.77;11.10;;;;;;;15.64;87.79;96589.59;4970241;28;20055;-77
2022/08/30 05:48:26;;;;;;;17.00;11.23;;;;;;;15.70;88.46;96590.97;4970082;28;20042;-77
2022/08/30 05:51:02;;;;;;;15.25;11.02;;;;;;;15.70;88.21;96585.47;4971220;28;20297;-77
2022/08/30 05:53:29;;;;;;;14.50;10.68;;;;;;;15.74;88.11;96586.38;4970131;28;20660;-78
2022/08/30 05:55:55;;;;;;;15.88;10.57;;;;;;;15.85;88.84;96593.00;4971554;28;20073;-77
2022/08/30 05:58:23;;;;;;;21.08;11.68;;;;;;;15.87;88.58;96585.22;4970850;28;20047;-76
2022/08/30 06:00:50;;;;;;;17.80;11.88;;;;;;;15.76;88.46;96581.34;4971236;28;20046;-76
2022/08/30 06:03:16;;;;;;;13.43;10.65;;;;;;;15.85;88.61;96582.00;4970952;28;20047;-77
2022/08/30 06:05:43;;;;;;;15.93;10.85;;;;;;;15.97;88.74;96586.66;4971506;28;20042;-76
2022/08/30 06:08:09;;;;;;;14.98;11.30;;;;;;;16.04;88.03;96591.59;4970784;28;20537;-76
2022/08/30 06:10:36;;;;;;;14.07;10.27;;;;;;;16.15;88.25;96588.00;4971230;28;20034;-76
2022/08/30 06:13:02;;;;;;;16.25;11.07;;;;;;;16.23;88.52;96590.94;4970886;28;20047;-75
2022/08/30 06:15:30;;;;;;;14.27;11.38;;;;;;;16.17;87.88;96588.44;4971113;28;20049;-78
2022/08/30 06:17:56;;;;;;;16.17;11.60;;;;;;;16.12;87.53;96587.91;4971129;28;20495;-77
2022/08/30 06:20:23;;;;;;;15.85;11.63;;;;;;;16.12;87.99;96585.16;4970710;28;20047;-76
2022/08/30 06:22:50;;;;;;;14.23;11.15;;;;;;;16.37;87.93;96586.66;4962558;28;20043;-78
2022/08/30 06:25:17;;;;;;;15.80;11.60;;;;;;;16.53;88.25;96592.22;4955397;28;20167;-76
2022/08/30 06:27:43;;;;;;;14.20;10.88;;;;;;;16.64;87.76;96598.00;4955705;28;20047;-77
2022/08/30 06:30:10;;;;;;;15.77;11.55;;;;;;;16.62;86.31;96597.56;4954935;28;20046;-77
2022/08/30 06:32:38;;;;;;;17.33;11.60;;;;;;;16.53;86.41;96588.66;4955255;28;20048;-76
2022/08/30 06:35:06;;;;;;;15.23;9.70;;;;;;;16.80;86.31;96592.56;4954999;28;20054;-77
2022/08/30 06:37:32;;;;;;;13.50;10.23;;;;;;;16.88;85.91;96594.38;4955399;28;20043;-76
2022/08/30 06:40:01;;;;;;;15.18;9.93;;;;;;;16.99;85.80;96592.69;4955122;28;20054;-77
2022/08/30 06:42:30;;;;;;;15.65;10.80;;;;;;;17.00;85.29;96590.72;4954876;28;20047;-77
2022/08/30 06:44:57;;;;;;;14.45;10.20;;;;;;;17.08;84.80;96600.78;4955019;28;20051;-77
2022/08/30 06:47:24;;;;;;;14.48;10.65;;;;;;;17.05;84.34;96598.72;4954397;28;20054;-77
2022/08/30 06:49:52;;;;;;;13.98;10.05;;;;;;;17.25;85.23;96594.13;4954812;28;20037;-78
2022/08/30 06:52:18;;;;;;;13.43;10.52;;;;;;;17.16;84.38;96595.09;4961314;28;20053;-77
2022/08/30 06:54:44;;;;;;;13.93;9.75;;;;;;;17.40;84.19;96593.31;4974227;28;20043;-77
2022/08/30 06:57:11;;;;;;;15.18;10.05;;;;;;;17.50;84.34;96592.78;4973661;28;20043;-76
2022/08/30 06:59:38;;;;;;;12.38;9.55;;;;;;;17.72;84.07;96594.91;4974072;28;20105;-76
2022/08/30 07:02:05;;;;;;;13.60;10.43;;;;;;;17.85;83.58;96595.56;4973608;28;20042;-77
2022/08/30 07:04:32;;;;;;;10.77;8.88;;;;;;;17.94;83.09;96596.19;4974112;28;20039;-77
2022/08/30 07:07:00;;;;;;;14.40;10.38;;;;;;;18.10;82.75;96598.88;4973882;28;20078;-77
2022/08/30 07:09:26;;;;;;;16.58;10.98;;;;;;;18.23;82.33;96596.81;4973625;28;20046;-79
2022/08/30 07:11:53;;;;;;;17.92;10.45;;;;;;;18.34;82.24;96602.53;4973573;28;20055;-79
2022/08/30 07:14:20;;;;;;;13.15;11.05;;;;;;;18.41;80.80;96602.69;4973586;28;20054;-80
2022/08/30 07:16:47;;;;;;;15.30;11.30;;;;;;;18.40;80.25;96601.09;4973767;28;20054;-79
2022/08/30 07:19:13;;;;;;;16.08;11.20;;;;;;;18.53;80.51;96599.78;4973472;28;20042;-79
2022/08/30 07:21:43;;;;;;;19.13;10.82;;;;;;;18.65;80.65;96610.66;4972600;28;20049;-78
2022/08/30 07:24:12;;;;;;;13.25;9.80;;;;;;;18.91;79.60;96601.75;4973387;28;20121;-78
2022/08/30 07:26:42;;;;;;;18.55;11.27;;;;;;;19.10;80.00;96602.84;4973640;28;20043;-76
2022/08/30 07:29:10;;;;;;;14.90;10.23;;;;;;;19.42;79.49;96600.63;4973371;28;20047;-77
2022/08/30 07:31:38;;;;;;;13.68;9.85;;;;;;;19.99;74.65;96610.66;4973548;28;20039;-77
2022/08/30 07:34:05;;;;;;;12.95;9.30;;;;;;;20.82;71.57;96599.47;4972846;28;20050;-76
2022/08/30 07:36:32;;;;;;;12.23;8.50;;;;;;;21.50;69.02;96605.69;4973703;28;20042;-77
2022/08/30 07:38:59;;;;;;;10.70;9.48;;;;;;;21.44;66.23;96598.13;4973382;28;20062;-77
2022/08/30 07:41:30;;;;;;;12.98;8.77;;;;;;;21.99;69.05;96604.50;4973159;28;20126;-79
2022/08/30 07:43:57;;;;;;;14.25;8.10;;;;;;;21.96;63.61;96605.25;4973257;28;20418;-77
2022/08/30 07:46:24;;;;;;;10.43;7.80;;;;;;;22.25;65.79;96599.91;4973100;28;20410;-78
2022/08/30 07:48:53;;;;;;;10.40;7.97;;;;;;;22.77;66.32;96597.75;4973243;28;20043;-77
2022/08/30 07:51:21;;;;;;;10.93;7.43;;;;;;;22.95;62.93;96604.19;4972654;28;20655;-77
2022/08/30 07:53:47;;;;;;;13.63;8.90;;;;;;;22.90;61.86;96599.00;4971881;28;20058;-77
2022/08/30 07:56:15;;;;;;;12.60;8.25;;;;;;;23.24;61.64;96601.47;4972423;28;20058;-78
2022/08/30 07:58:43;;;;;;;12.90;8.15;;;;;;;23.38;61.73;96599.47;4973111;28;20049;-76
2022/08/30 08:01:11;;;;;;;10.85;8.60;;;;;;;23.31;60.38;96602.25;4972344;28;20470;-77
2022/08/30 08:03:39;;;;;;;16.15;9.02;;;;;;;23.32;63.49;96600.28;4973124;28;20039;-78
2022/08/30 08:06:07;;;;;;;11.82;8.80;;;;;;;23.40;61.58;96602.69;4972746;28;20121;-78
2022/08/30 08:08:34;;;;;;;9.40;7.40;;;;;;;23.41;62.55;96600.69;4972750;28;20078;-77
2022/08/30 08:11:06;;;;;;;10.68;7.65;;;;;;;23.56;61.03;96599.50;4972597;28;20520;-77
2022/08/30 08:13:33;;;;;;;11.75;7.43;;;;;;;23.73;62.27;96592.38;4972873;28;20043;-77
2022/08/30 08:16:01;;;;;;;8.40;7.10;;;;;;;24.02;61.91;96598.72;4972544;28;20042;-78
2022/08/30 08:18:28;;;;;;;9.32;7.93;;;;;;;24.13;60.68;96599.47;4972346;28;20061;-78
2022/08/30 08:20:54;;;;;;;8.73;6.95;;;;;;;24.14;58.25;96595.50;4972722;28;20043;-77
2022/08/30 08:23:21;;;;;;;12.05;7.28;;;;;;;24.34;60.29;96586.72;4971191;28;20057;-77
2022/08/30 08:25:48;;;;;;;13.57;8.07;;;;;;;24.53;60.01;96588.25;4972338;28;20097;-79
2022/08/30 08:28:14;;;;;;;10.32;7.63;;;;;;;24.56;58.83;96582.69;4971773;28;20043;-79
2022/08/30 08:30:41;;;;;;;9.25;7.90;;;;;;;24.55;59.38;96592.22;4972496;28;20061;-79
2022/08/30 08:33:11;;;;;;;10.27;7.93;;;;;;;24.25;56.88;96589.91;4971775;28;20071;-79
2022/08/30 08:35:38;;;;;;;9.52;6.82;;;;;;;24.25;58.54;96589.13;4972370;28;20039;-79
2022/08/30 08:38:05;;;;;;;11.07;7.13;;;;;;;24.22;57.36;96593.47;4971819;28;20058;-79
2022/08/30 08:40:37;;;;;;;12.43;8.18;;;;;;;24.36;57.68;96595.47;4972095;28;20043;-80
2022/08/30 08:43:11;;;;;;;9.50;7.25;;;;;;;24.66;58.76;96597.75;4971543;28;20058;-79
2022/08/30 08:45:47;;;;;;;9.23;7.18;;;;;;;24.75;57.57;96591.75;4971615;28;20066;-79
2022/08/30 08:48:29;;;;;;;9.95;8.07;;;;;;;24.85;56.86;96582.53;4971585;28;20058;-78
2022/08/30 08:53:40;;;;;;;13.43;9.18;;;;;;;24.50;54.85;96581.50;4954785;28;20174;-80
2022/08/30 08:56:13;;;;;;;9.63;7.80;;;;;;;24.70;57.56;96587.41;4952079;28;20058;-79
2022/08/30 08:58:43;;;;;;;9.40;7.00;;;;;;;24.80;58.80;96585.78;4952435;28;20054;-78
2022/08/30 09:01:14;;;;;;;11.77;8.35;;;;;;;24.80;55.70;96591.34;4952071;28;20047;-77
2022/08/30 09:03:42;;;;;;;9.27;7.55;;;;;;;25.00;56.94;96589.63;4952592;28;20043;-80
2022/08/30 09:06:23;;;;;;;8.63;6.80;;;;;;;25.07;57.56;96589.63;4952083;28;20056;-79
2022/08/30 09:08:50;;;;;;;10.82;6.78;;;;;;;25.19;57.15;96591.13;4952538;28;20102;-78
2022/08/30 09:11:23;;;;;;;9.07;6.55;;;;;;;25.27;54.91;96589.06;4951877;28;20672;-80
2022/08/30 09:13:49;;;;;;;9.07;6.53;;;;;;;25.30;55.61;96585.47;4952201;28;20660;-78
2022/08/30 09:16:50;;;;;;;9.63;6.80;;;;;;;25.27;54.96;96589.06;4952156;28;20054;-77
2022/08/30 09:19:37;;;;;;;9.27;6.55;;;;;;;25.32;56.27;96594.22;4952006;28;20066;-79
2022/08/30 09:22:11;;;;;;;7.20;6.03;;;;;;;25.32;53.61;96583.88;4956783;28;20051;-79
2022/08/30 09:24:42;;;;;;;9.02;6.10;;;;;;;25.20;54.19;96576.78;4971455;28;20106;-79
2022/08/30 09:27:22;;;;;;;12.93;6.07;;;;;;;25.28;55.14;96580.31;4970902;28;20046;-79
2022/08/30 09:29:51;;;;;;;11.77;6.40;;;;;;;25.38;57.60;96575.88;4971550;28;20046;-79
2022/08/30 09:32:40;;;;;;;10.02;6.93;;;;;;;25.52;55.94;96576.53;4970971;28;20054;-80
2022/08/30 09:35:12;;;;;;;13.38;6.40;;;;;;;25.40;52.71;96577.03;4964156;28;20043;-79
2022/08/30 09:37:45;;;;;;;8.05;6.07;;;;;;;25.51;54.36;96585.31;4971469;28;20050;-79
2022/08/30 09:40:16;;;;;;;8.90;6.50;;;;;;;25.46;50.00;96574.59;4970824;28;20057;-78
2022/08/30 09:43:00;;;;;;;6.20;5.20;;;;;;;25.62;51.96;96580.44;4971390;28;20561;-78
2022/08/30 09:45:31;;;;;;;6.75;5.15;;;;;;;25.70;51.25;96575.63;4971351;28;20139;-78
2022/08/30 09:47:57;;;;;;;8.32;6.00;;;;;;;25.40;51.29;96574.25;4971209;28;20078;-78
2022/08/30 09:50:30;;;;;;;7.15;5.47;;;;;;;25.38;49.65;96564.72;4970782;28;20043;-77
2022/08/30 09:53:08;;;;;;;8.05;5.43;;;;;;;25.45;51.00;96567.44;4970366;28;20051;-77
2022/08/30 09:55:49;;;;;;;6.72;4.43;;;;;;;25.59;51.23;96560.97;4971954;28;20043;-80
2022/08/30 09:58:27;;;;;;;7.85;5.70;;;;;;;25.63;50.22;96562.53;4974771;28;20050;-80
2022/08/30 10:01:02;;;;;;;7.63;5.90;;;;;;;25.55;47.86;96563.78;4974944;28;20422;-81
2022/08/30 10:03:36;;;;;;;6.35;4.70;;;;;;;25.71;51.73;96561.25;4974814;28;20558;-79
2022/08/30 10:06:12;;;;;;;9.27;5.10;;;;;;;25.34;49.40;96552.81;4974537;28;20495;-79
2022/08/30 10:08:49;;;;;;;6.65;4.72;;;;;;;25.57;51.47;96547.44;4975022;28;20042;-79
2022/08/30 10:11:21;;;;;;;7.93;5.13;;;;;;;25.60;50.08;96546.63;4974567;28;20133;-79
2022/08/30 10:13:58;;;;;;;5.70;4.63;;;;;;;25.66;50.83;96541.38;4974736;28;20438;-79
2022/08/30 10:16:37;;;;;;;6.30;4.95;;;;;;;25.73;48.78;96535.72;4974482;28;20410;-79
2022/08/30 10:19:17;;;;;;;7.45;4.93;;;;;;;25.92;49.76;96537.19;4974548;28;20046;-79
2022/08/30 10:21:49;;;;;;;6.75;5.03;;;;;;;25.92;47.04;96531.59;4973920;28;20054;-79
2022/08/30 10:24:21;;;;;;;5.20;4.15;;;;;;;25.97;48.40;96528.34;4974418;28;20129;-79
2022/08/30 10:26:52;;;;;;;5.63;4.60;;;;;;;26.01;47.60;96529.13;4974653;28;20049;-79
2022/08/30 10:29:23;;;;;;;6.60;4.53;;;;;;;25.92;48.14;96520.44;4974333;28;20418;-79
2022/08/30 10:31:56;;;;;;;8.07;4.20;;;;;;;25.99;46.85;96518.34;4974454;28;20046;-80
2022/08/30 10:34:27;;;;;;;7.35;4.90;;;;;;;26.06;46.42;96520.28;4974287;28;20059;-79
2022/08/30 10:37:00;;;;;;;6.05;4.78;;;;;;;26.02;49.18;96509.16;4974228;28;20054;-79
2022/08/30 10:39:32;;;;;;;7.28;5.13;;;;;;;25.89;46.90;96512.88;4974290;28;20051;-80
2022/08/30 10:42:06;;;;;;;6.07;5.03;;;;;;;25.96;46.36;96508.03;4974320;28;20047;-79
2022/08/30 10:44:39;;;;;;;6.85;4.60;;;;;;;25.95;46.16;96505.66;4974327;28;20046;-79
2022/08/30 10:47:16;;;;;;;7.15;4.95;;;;;;;25.71;45.40;96511.06;4973686;28;20058;-79
2022/08/30 10:49:46;;;;;;;6.70;4.50;;;;;;;25.80;46.70;96520.97;4974259;28;20046;-80
2022/08/30 10:52:26;;;;;;;9.35;5.38;;;;;;;25.60;45.22;96521.53;4972848;28;20418;-79
2022/08/30 10:54:57;;;;;;;6.85;3.90;;;;;;;25.75;46.20;96517.41;4974203;28;20056;-80
2022/08/30 10:57:24;;;;;;;6.20;3.83;;;;;;;25.83;43.62;96506.19;4974036;28;20047;-79
2022/08/30 10:59:54;;;;;;;7.43;4.25;;;;;;;25.80;43.15;96512.59;4973893;28;20047;-79
2022/08/30 11:02:39;;;;;;;5.13;3.67;;;;;;;25.81;44.50;96503.03;4973687;28;20047;-80
2022/08/30 11:05:27;;;;;;;5.90;4.10;;;;;;;25.92;43.67;96503.69;4973379;28;20537;-80
2022/08/30 11:08:02;;;;;;;4.38;3.30;;;;;;;25.94;42.61;96506.84;4973000;28;20062;-80
2022/08/30 11:10:45;;;;;;;6.45;3.85;;;;;;;25.90;42.81;96500.53;4973523;28;20043;-79
2022/08/30 11:13:15;;;;;;;5.30;3.85;;;;;;;25.98;42.21;96500.03;4973357;28;20053;-79
2022/08/30 11:15:56;;;;;;;6.00;3.53;;;;;;;25.95;42.34;96489.72;4973827;28;20068;-79
2022/08/30 11:18:24;;;;;;;8.60;3.60;;;;;;;25.97;40.81;96503.25;4973196;28;20510;-79
2022/08/30 11:20:55;;;;;;;5.78;3.47;;;;;;;25.92;39.76;96498.13;4973639;28;20043;-79
2022/08/30 11:23:32;;;;;;;5.97;3.58;;;;;;;25.96;41.36;96494.09;4972205;28;20525;-79
2022/08/30 11:26:01;;;;;;;5.43;3.78;;;;;;;26.01;42.61;96490.84;4973671;28;20051;-80
2022/08/30 11:29:03;;;;;;;6.03;3.85;;;;;;;26.11;44.81;96486.34;4973407;28;20097;-79
2022/08/30 11:31:38;;;;;;;5.50;3.72;;;;;;;26.13;44.04;96486.72;4973367;28;20046;-79
2022/08/30 11:34:06;;;;;;;6.38;3.55;;;;;;;26.04;41.54;96494.78;4971915;28;20055;-79
2022/08/30 11:37:06;;;;;;;4.22;3.55;;;;;;;26.11;43.17;96489.13;4973284;28;20051;-80